Wednesday, August 15, 2018, 11:59 PM EDT
Back to Local

KYNG, Youngstown-warren Reg Airprt

Location: Vienna, OH, United States Lat: 41.25
Local Time: 11:59 PM EDT ( 3:59 GMT) Lon: -80.667
Time Zone: US/Eastern Elev: 1197 ft

Show me the last for .
Show Decoded

2018-08-15 22:51 METAR KYNG 160251Z 20005KT 10SM SCT048 BKN210 OVC250 24/20 A3007 RMK AO2 SLP172
                 T02390200 53008 =
2018-08-15 21:51 METAR KYNG 160151Z 19004KT 10SM FEW055 OVC210 24/20 A3006 RMK AO2 SLP170
                 T02390200 =
2018-08-15 20:51 METAR KYNG 160051Z 14005KT 10SM BKN050 OVC220 25/20 A3005 RMK AO2 SLP166
                 T02500200 =
2018-08-15 19:51 METAR KYNG 152351Z 14003KT 10SM FEW055 BKN220 OVC250 26/21 A3004 RMK AO2 SLP165
                 T02560211 10300 20250 55001 =
2018-08-15 18:51 METAR KYNG 152251Z 12003KT 10SM FEW040 OVC220 27/20 A3004 RMK AO2 SLP163
                 T02720200 =
2018-08-15 17:51 METAR KYNG 152151Z 00000KT 10SM SCT042 OVC250 29/19 A3004 RMK AO2 SLP163
                 T02890194 =
2018-08-15 16:51 METAR KYNG 152051Z 34004KT 10SM FEW039 OVC250 29/19 A3005 RMK AO2 SLP166
                 T02940194 58004 =
2018-08-15 15:51 METAR KYNG 151951Z 31008KT 10SM BKN043 OVC250 29/19 A3005 RMK AO2 SLP168
                 T02890189 =
2018-08-15 14:51 METAR KYNG 151851Z 25010KT 10SM SCT041 SCT150 OVC250 29/19 A3006 RMK AO2 SLP172
                 T02890189 =
2018-08-15 13:51 METAR KYNG 151751Z 24009KT 10SM SCT039 OVC250 29/19 A3006 RMK AO2 SLP170
                 T02940189 10294 20194 51000 =
2018-08-15 12:51 METAR KYNG 151651Z 24009KT 10SM SCT037 OVC250 28/19 A3006 RMK AO2 SLP171
                 T02780189 =
2018-08-15 11:51 METAR KYNG 151551Z 25009KT 10SM FEW032 FEW220 OVC250 28/19 A3006 RMK AO2 SLP171
                 T02780194 =
2018-08-15 10:51 METAR KYNG 151451Z 25006KT 10SM OVC250 26/20 A3006 RMK AO2 SLP170 T02610200
                 51006 =
2018-08-15 09:51 METAR KYNG 151351Z 27007KT 10SM FEW048 BKN250 24/20 A3006 RMK AO2 SLP170
                 T02440200 =
2018-08-15 08:51 METAR KYNG 151251Z 24005KT 7SM FEW048 BKN250 23/19 A3005 RMK AO2 SLP167
                 T02280194 =
2018-08-15 07:51 METAR KYNG 151151Z 22003KT 7SM SCT045 SCT250 19/18 A3004 RMK AO2 SLP164
                 T01940183 10194 20178 51011 =
2018-08-15 06:51 METAR KYNG 151051Z 21003KT 7SM FEW050 FEW250 18/18 A3003 RMK AO2 SLP160
                 T01830178 =
2018-08-15 05:51 METAR KYNG 150951Z 00000KT 9SM FEW050 18/17 A3002 RMK AO2 SLP156 T01830172 =
2018-08-15 04:51 METAR KYNG 150851Z VRB03KT 9SM SCT050 18/17 A3000 RMK AO2 SLP151 T01830172 55000
                 =
2018-08-15 03:51 METAR KYNG 150751Z 21003KT 10SM CLR 19/17 A2999 RMK AO2 SLP148 T01890172 =
2018-08-15 02:51 METAR KYNG 150651Z 20004KT 10SM CLR 19/17 A3000 RMK AO2 SLP149 T01890172 =
2018-08-15 01:51 METAR KYNG 150551Z 20004KT 10SM CLR 19/17 A3000 RMK AO2 SLP151 T01940167 10250
                 20178 53002 =
2018-08-15 00:51 METAR KYNG 150451Z 20003KT 10SM CLR 19/17 A3000 RMK AO2 SLP152 T01890167
                 402940172 =

Support USWX by starting your Amazon purchase here.